sensor_id;sensor_type;location;lat;lon;timestamp;P1;durP1;ratioP1;P2;durP2;ratioP2
70342;SDS011;57767;42.068;24.752;2022-12-07T00:00:19;31.33;;;17.10;;
70342;SDS011;57767;42.068;24.752;2022-12-07T00:01:31;26.52;;;14.43;;
70342;SDS011;57767;42.068;24.752;2022-12-07T00:02:35;25.95;;;13.93;;
70342;SDS011;57767;42.068;24.752;2022-12-07T00:03:37;24.95;;;11.15;;
70342;SDS011;57767;42.068;24.752;2022-12-07T00:04:40;21.23;;;10.20;;
70342;SDS011;57767;42.068;24.752;2022-12-07T00:05:41;20.55;;;11.18;;
70342;SDS011;57767;42.068;24.752;2022-12-07T00:06:44;20.20;;;11.68;;
70342;SDS011;57767;42.068;24.752;2022-12-07T00:07:48;24.20;;;10.15;;
70342;SDS011;57767;42.068;24.752;2022-12-07T00:08:50;19.88;;;11.48;;
70342;SDS011;57767;42.068;24.752;2022-12-07T00:09:52;26.30;;;11.32;;
70342;SDS011;57767;42.068;24.752;2022-12-07T00:10:53;20.77;;;11.98;;
70342;SDS011;57767;42.068;24.752;2022-12-07T00:11:55;21.95;;;11.95;;
70342;SDS011;57767;42.068;24.752;2022-12-07T00:12:57;22.33;;;12.50;;
70342;SDS011;57767;42.068;24.752;2022-12-07T00:14:00;19.02;;;11.20;;
70342;SDS011;57767;42.068;24.752;2022-12-07T00:15:03;18.67;;;10.40;;
70342;SDS011;57767;42.068;24.752;2022-12-07T00:16:07;20.02;;;11.55;;
70342;SDS011;57767;42.068;24.752;2022-12-07T00:17:13;19.60;;;11.52;;
70342;SDS011;57767;42.068;24.752;2022-12-07T00:18:15;21.92;;;11.07;;
70342;SDS011;57767;42.068;24.752;2022-12-07T00:19:17;22.90;;;11.38;;
70342;SDS011;57767;42.068;24.752;2022-12-07T00:20:19;25.00;;;12.77;;
70342;SDS011;57767;42.068;24.752;2022-12-07T00:21:27;19.73;;;10.75;;
70342;SDS011;57767;42.068;24.752;2022-12-07T00:22:31;22.10;;;11.48;;
70342;SDS011;57767;42.068;24.752;2022-12-07T00:23:33;22.73;;;11.48;;
70342;SDS011;57767;42.068;24.752;2022-12-07T00:24:35;22.45;;;9.60;;
70342;SDS011;57767;42.068;24.752;2022-12-07T00:25:37;18.85;;;10.73;;
70342;SDS011;57767;42.068;24.752;2022-12-07T00:26:39;21.60;;;11.65;;
70342;SDS011;57767;42.068;24.752;2022-12-07T00:27:42;18.92;;;10.60;;
70342;SDS011;57767;42.068;24.752;2022-12-07T00:28:50;19.75;;;11.45;;
70342;SDS011;57767;42.068;24.752;2022-12-07T00:30:12;18.75;;;10.95;;
70342;SDS011;57767;42.068;24.752;2022-12-07T00:31:15;20.92;;;9.93;;
70342;SDS011;57767;42.068;24.752;2022-12-07T00:32:18;19.63;;;9.93;;
70342;SDS011;57767;42.068;24.752;2022-12-07T00:33:20;21.67;;;11.25;;
70342;SDS011;57767;42.068;24.752;2022-12-07T00:34:22;24.02;;;12.35;;
70342;SDS011;57767;42.068;24.752;2022-12-07T00:35:23;23.48;;;11.65;;
70342;SDS011;57767;42.068;24.752;2022-12-07T00:36:25;19.92;;;11.57;;
70342;SDS011;57767;42.068;24.752;2022-12-07T00:37:27;22.85;;;9.82;;
70342;SDS011;57767;42.068;24.752;2022-12-07T00:38:30;27.73;;;12.40;;
70342;SDS011;57767;42.068;24.752;2022-12-07T00:39:33;24.55;;;10.23;;
70342;SDS011;57767;42.068;24.752;2022-12-07T00:40:35;19.42;;;11.85;;
70342;SDS011;57767;42.068;24.752;2022-12-07T00:41:36;23.52;;;12.02;;
70342;SDS011;57767;42.068;24.752;2022-12-07T00:42:38;21.73;;;11.50;;
70342;SDS011;57767;42.068;24.752;2022-12-07T00:43:40;24.73;;;10.48;;
70342;SDS011;57767;42.068;24.752;2022-12-07T00:44:42;24.13;;;12.02;;
70342;SDS011;57767;42.068;24.752;2022-12-07T00:45:44;23.52;;;11.90;;
70342;SDS011;57767;42.068;24.752;2022-12-07T00:46:46;21.23;;;12.60;;
70342;SDS011;57767;42.068;24.752;2022-12-07T00:47:47;26.58;;;12.43;;
70342;SDS011;57767;42.068;24.752;2022-12-07T00:48:49;19.70;;;11.70;;
70342;SDS011;57767;42.068;24.752;2022-12-07T00:49:52;23.17;;;11.43;;
70342;SDS011;57767;42.068;24.752;2022-12-07T00:50:54;20.58;;;11.25;;
70342;SDS011;57767;42.068;24.752;2022-12-07T00:51:56;21.70;;;12.00;;
70342;SDS011;57767;42.068;24.752;2022-12-07T00:52:57;22.42;;;10.82;;
70342;SDS011;57767;42.068;24.752;2022-12-07T00:53:59;21.15;;;10.95;;
70342;SDS011;57767;42.068;24.752;2022-12-07T00:55:01;18.63;;;10.60;;
70342;SDS011;57767;42.068;24.752;2022-12-07T00:56:06;18.58;;;9.18;;
70342;SDS011;57767;42.068;24.752;2022-12-07T00:57:13;25.83;;;14.02;;
70342;SDS011;57767;42.068;24.752;2022-12-07T00:58:15;20.02;;;9.13;;
70342;SDS011;57767;42.068;24.752;2022-12-07T00:59:17;22.02;;;10.15;;
70342;SDS011;57767;42.068;24.752;2022-12-07T01:00:18;22.73;;;12.32;;
70342;SDS011;57767;42.068;24.752;2022-12-07T01:01:20;19.63;;;11.77;;
70342;SDS011;57767;42.068;24.752;2022-12-07T01:02:22;22.05;;;11.77;;
70342;SDS011;57767;42.068;24.752;2022-12-07T01:03:24;23.38;;;12.15;;
70342;SDS011;57767;42.068;24.752;2022-12-07T01:04:26;23.65;;;12.10;;
70342;SDS011;57767;42.068;24.752;2022-12-07T01:05:28;23.20;;;12.23;;
70342;SDS011;57767;42.068;24.752;2022-12-07T01:06:30;23.17;;;12.38;;
70342;SDS011;57767;42.068;24.752;2022-12-07T01:07:32;21.77;;;12.32;;
70342;SDS011;57767;42.068;24.752;2022-12-07T01:08:34;21.10;;;11.63;;
70342;SDS011;57767;42.068;24.752;2022-12-07T01:09:35;20.38;;;11.43;;
70342;SDS011;57767;42.068;24.752;2022-12-07T01:10:37;22.63;;;9.75;;
70342;SDS011;57767;42.068;24.752;2022-12-07T01:11:39;24.50;;;11.20;;
70342;SDS011;57767;42.068;24.752;2022-12-07T01:12:40;18.70;;;10.20;;
70342;SDS011;57767;42.068;24.752;2022-12-07T01:13:42;21.65;;;10.05;;
70342;SDS011;57767;42.068;24.752;2022-12-07T01:14:45;21.33;;;10.10;;
70342;SDS011;57767;42.068;24.752;2022-12-07T01:15:47;18.88;;;10.00;;
70342;SDS011;57767;42.068;24.752;2022-12-07T01:16:49;25.63;;;10.70;;
70342;SDS011;57767;42.068;24.752;2022-12-07T01:17:50;19.52;;;10.93;;
70342;SDS011;57767;42.068;24.752;2022-12-07T01:18:53;18.58;;;9.88;;
70342;SDS011;57767;42.068;24.752;2022-12-07T01:19:55;16.15;;;9.90;;
70342;SDS011;57767;42.068;24.752;2022-12-07T01:21:01;18.35;;;8.82;;
70342;SDS011;57767;42.068;24.752;2022-12-07T01:22:04;20.55;;;9.68;;
70342;SDS011;57767;42.068;24.752;2022-12-07T01:23:06;15.55;;;9.32;;
70342;SDS011;57767;42.068;24.752;2022-12-07T01:24:09;21.48;;;10.05;;
70342;SDS011;57767;42.068;24.752;2022-12-07T01:25:12;16.35;;;9.38;;
70342;SDS011;57767;42.068;24.752;2022-12-07T01:26:15;19.50;;;10.20;;
70342;SDS011;57767;42.068;24.752;2022-12-07T01:27:19;21.77;;;8.95;;
70342;SDS011;57767;42.068;24.752;2022-12-07T01:28:20;15.23;;;8.20;;
70342;SDS011;57767;42.068;24.752;2022-12-07T01:29:22;17.15;;;7.93;;
70342;SDS011;57767;42.068;24.752;2022-12-07T01:30:24;17.30;;;8.30;;
70342;SDS011;57767;42.068;24.752;2022-12-07T01:31:26;16.25;;;9.27;;
70342;SDS011;57767;42.068;24.752;2022-12-07T01:32:29;16.92;;;9.73;;
70342;SDS011;57767;42.068;24.752;2022-12-07T01:33:32;17.80;;;10.15;;
70342;SDS011;57767;42.068;24.752;2022-12-07T01:34:36;16.92;;;9.07;;
70342;SDS011;57767;42.068;24.752;2022-12-07T01:35:38;16.83;;;9.02;;
70342;SDS011;57767;42.068;24.752;2022-12-07T01:36:40;15.10;;;8.73;;
70342;SDS011;57767;42.068;24.752;2022-12-07T01:37:41;21.23;;;10.60;;
70342;SDS011;57767;42.068;24.752;2022-12-07T01:38:43;15.65;;;9.00;;
70342;SDS011;57767;42.068;24.752;2022-12-07T01:39:50;19.98;;;9.13;;
70342;SDS011;57767;42.068;24.752;2022-12-07T01:40:55;17.50;;;9.77;;
70342;SDS011;57767;42.068;24.752;2022-12-07T01:41:57;17.58;;;10.13;;
70342;SDS011;57767;42.068;24.752;2022-12-07T01:42:59;16.75;;;8.73;;
70342;SDS011;57767;42.068;24.752;2022-12-07T01:45:40;14.88;;;7.22;;
70342;SDS011;57767;42.068;24.752;2022-12-07T01:46:44;15.35;;;8.48;;
70342;SDS011;57767;42.068;24.752;2022-12-07T01:47:52;18.65;;;8.95;;
70342;SDS011;57767;42.068;24.752;2022-12-07T01:48:56;14.57;;;8.00;;
70342;SDS011;57767;42.068;24.752;2022-12-07T01:49:58;17.40;;;9.15;;
70342;SDS011;57767;42.068;24.752;2022-12-07T01:51:01;19.45;;;9.07;;
70342;SDS011;57767;42.068;24.752;2022-12-07T01:52:22;16.45;;;9.38;;
70342;SDS011;57767;42.068;24.752;2022-12-07T01:53:29;18.33;;;9.07;;
70342;SDS011;57767;42.068;24.752;2022-12-07T01:54:32;18.30;;;7.93;;
70342;SDS011;57767;42.068;24.752;2022-12-07T01:55:37;14.73;;;8.82;;
70342;SDS011;57767;42.068;24.752;2022-12-07T01:56:43;17.95;;;9.60;;
70342;SDS011;57767;42.068;24.752;2022-12-07T01:57:52;14.93;;;8.55;;
70342;SDS011;57767;42.068;24.752;2022-12-07T01:58:55;18.52;;;8.55;;
70342;SDS011;57767;42.068;24.752;2022-12-07T01:59:59;21.92;;;11.25;;
70342;SDS011;57767;42.068;24.752;2022-12-07T02:01:03;20.73;;;9.93;;
70342;SDS011;57767;42.068;24.752;2022-12-07T02:02:07;19.67;;;10.43;;
70342;SDS011;57767;42.068;24.752;2022-12-07T02:03:29;19.95;;;10.75;;
70342;SDS011;57767;42.068;24.752;2022-12-07T02:04:35;18.10;;;9.95;;
70342;SDS011;57767;42.068;24.752;2022-12-07T02:05:38;18.05;;;8.75;;
70342;SDS011;57767;42.068;24.752;2022-12-07T02:06:42;19.50;;;11.20;;
70342;SDS011;57767;42.068;24.752;2022-12-07T02:07:47;16.65;;;8.75;;
70342;SDS011;57767;42.068;24.752;2022-12-07T02:08:50;18.58;;;9.23;;
70342;SDS011;57767;42.068;24.752;2022-12-07T02:09:52;16.88;;;10.38;;
70342;SDS011;57767;42.068;24.752;2022-12-07T02:10:54;23.17;;;11.15;;
70342;SDS011;57767;42.068;24.752;2022-12-07T02:11:56;19.48;;;10.43;;
70342;SDS011;57767;42.068;24.752;2022-12-07T02:14:12;20.60;;;11.23;;
70342;SDS011;57767;42.068;24.752;2022-12-07T02:15:14;23.70;;;10.77;;
70342;SDS011;57767;42.068;24.752;2022-12-07T02:18:01;26.50;;;13.90;;
70342;SDS011;57767;42.068;24.752;2022-12-07T02:20:33;20.90;;;11.35;;
70342;SDS011;57767;42.068;24.752;2022-12-07T02:28:36;19.35;;;9.95;;
70342;SDS011;57767;42.068;24.752;2022-12-07T02:29:50;18.08;;;10.23;;
70342;SDS011;57767;42.068;24.752;2022-12-07T02:31:06;19.30;;;10.45;;
70342;SDS011;57767;42.068;24.752;2022-12-07T02:32:16;20.13;;;10.90;;
70342;SDS011;57767;42.068;24.752;2022-12-07T02:33:28;17.70;;;10.07;;
70342;SDS011;57767;42.068;24.752;2022-12-07T02:36:07;18.48;;;9.68;;
70342;SDS011;57767;42.068;24.752;2022-12-07T02:40:04;21.27;;;10.53;;
70342;SDS011;57767;42.068;24.752;2022-12-07T02:41:22;16.40;;;9.82;;
70342;SDS011;57767;42.068;24.752;2022-12-07T02:42:34;21.98;;;9.43;;
70342;SDS011;57767;42.068;24.752;2022-12-07T02:43:40;17.92;;;9.82;;
70342;SDS011;57767;42.068;24.752;2022-12-07T02:44:47;15.32;;;9.80;;
70342;SDS011;57767;42.068;24.752;2022-12-07T02:45:50;18.77;;;9.45;;
70342;SDS011;57767;42.068;24.752;2022-12-07T02:46:54;18.65;;;10.23;;
70342;SDS011;57767;42.068;24.752;2022-12-07T02:47:59;17.92;;;9.27;;
70342;SDS011;57767;42.068;24.752;2022-12-07T02:49:02;15.02;;;9.55;;
70342;SDS011;57767;42.068;24.752;2022-12-07T02:50:05;24.35;;;11.43;;
70342;SDS011;57767;42.068;24.752;2022-12-07T02:51:07;18.67;;;10.32;;
70342;SDS011;57767;42.068;24.752;2022-12-07T02:52:09;19.15;;;10.00;;
70342;SDS011;57767;42.068;24.752;2022-12-07T02:53:30;16.20;;;8.88;;
70342;SDS011;57767;42.068;24.752;2022-12-07T02:54:32;16.10;;;9.82;;
70342;SDS011;57767;42.068;24.752;2022-12-07T02:55:37;16.30;;;9.50;;
70342;SDS011;57767;42.068;24.752;2022-12-07T03:00:20;17.83;;;9.52;;
70342;SDS011;57767;42.068;24.752;2022-12-07T03:02:58;16.10;;;9.40;;
70342;SDS011;57767;42.068;24.752;2022-12-07T03:07:15;19.63;;;9.38;;
70342;SDS011;57767;42.068;24.752;2022-12-07T03:09:53;18.95;;;10.05;;
70342;SDS011;57767;42.068;24.752;2022-12-07T03:12:07;16.60;;;9.38;;
70342;SDS011;57767;42.068;24.752;2022-12-07T03:14:28;19.15;;;9.88;;
70342;SDS011;57767;42.068;24.752;2022-12-07T03:16:50;19.20;;;10.02;;
70342;SDS011;57767;42.068;24.752;2022-12-07T03:17:58;17.58;;;9.88;;
70342;SDS011;57767;42.068;24.752;2022-12-07T03:19:05;15.88;;;9.65;;
70342;SDS011;57767;42.068;24.752;2022-12-07T03:20:11;18.17;;;8.93;;
70342;SDS011;57767;42.068;24.752;2022-12-07T03:21:20;18.05;;;8.88;;
70342;SDS011;57767;42.068;24.752;2022-12-07T03:22:27;15.50;;;8.17;;
70342;SDS011;57767;42.068;24.752;2022-12-07T03:23:32;14.05;;;7.50;;
70342;SDS011;57767;42.068;24.752;2022-12-07T03:24:41;18.00;;;8.27;;
70342;SDS011;57767;42.068;24.752;2022-12-07T03:25:49;13.77;;;7.80;;
70342;SDS011;57767;42.068;24.752;2022-12-07T03:27:06;17.63;;;10.50;;
70342;SDS011;57767;42.068;24.752;2022-12-07T03:28:11;16.25;;;9.98;;
70342;SDS011;57767;42.068;24.752;2022-12-07T03:29:22;15.55;;;7.60;;
70342;SDS011;57767;42.068;24.752;2022-12-07T03:30:32;13.50;;;7.90;;
70342;SDS011;57767;42.068;24.752;2022-12-07T03:31:42;17.75;;;8.55;;
70342;SDS011;57767;42.068;24.752;2022-12-07T03:33:58;20.48;;;9.18;;
70342;SDS011;57767;42.068;24.752;2022-12-07T03:36:10;11.73;;;6.13;;
70342;SDS011;57767;42.068;24.752;2022-12-07T03:37:18;13.05;;;8.57;;
70342;SDS011;57767;42.068;24.752;2022-12-07T03:38:36;16.05;;;7.57;;
70342;SDS011;57767;42.068;24.752;2022-12-07T03:41:06;19.70;;;10.02;;
70342;SDS011;57767;42.068;24.752;2022-12-07T03:42:12;19.65;;;11.73;;
70342;SDS011;57767;42.068;24.752;2022-12-07T03:43:14;27.83;;;11.32;;
70342;SDS011;57767;42.068;24.752;2022-12-07T03:44:17;23.63;;;11.23;;
70342;SDS011;57767;42.068;24.752;2022-12-07T03:45:21;21.92;;;9.10;;
70342;SDS011;57767;42.068;24.752;2022-12-07T03:46:45;20.70;;;11.07;;
70342;SDS011;57767;42.068;24.752;2022-12-07T03:53:25;19.05;;;9.65;;
70342;SDS011;57767;42.068;24.752;2022-12-07T03:54:37;22.15;;;10.70;;
70342;SDS011;57767;42.068;24.752;2022-12-07T03:55:43;18.67;;;11.15;;
70342;SDS011;57767;42.068;24.752;2022-12-07T03:56:47;19.85;;;10.63;;
70342;SDS011;57767;42.068;24.752;2022-12-07T03:57:51;20.23;;;11.23;;
70342;SDS011;57767;42.068;24.752;2022-12-07T03:58:56;22.10;;;11.25;;
70342;SDS011;57767;42.068;24.752;2022-12-07T03:59:58;22.55;;;12.63;;
70342;SDS011;57767;42.068;24.752;2022-12-07T04:01:01;22.17;;;12.00;;
70342;SDS011;57767;42.068;24.752;2022-12-07T04:02:04;21.15;;;11.40;;
70342;SDS011;57767;42.068;24.752;2022-12-07T04:03:07;20.17;;;9.27;;
70342;SDS011;57767;42.068;24.752;2022-12-07T04:04:09;20.05;;;9.88;;
70342;SDS011;57767;42.068;24.752;2022-12-07T04:05:10;19.20;;;10.55;;
70342;SDS011;57767;42.068;24.752;2022-12-07T04:06:13;16.05;;;9.93;;
70342;SDS011;57767;42.068;24.752;2022-12-07T04:07:15;18.33;;;10.30;;
70342;SDS011;57767;42.068;24.752;2022-12-07T04:08:16;19.85;;;10.13;;
70342;SDS011;57767;42.068;24.752;2022-12-07T04:09:18;17.58;;;10.23;;
70342;SDS011;57767;42.068;24.752;2022-12-07T04:10:20;18.08;;;9.73;;
70342;SDS011;57767;42.068;24.752;2022-12-07T04:11:22;16.67;;;9.73;;
70342;SDS011;57767;42.068;24.752;2022-12-07T04:12:24;19.20;;;9.82;;
70342;SDS011;57767;42.068;24.752;2022-12-07T04:13:25;17.50;;;10.10;;
70342;SDS011;57767;42.068;24.752;2022-12-07T04:14:27;14.85;;;9.38;;
70342;SDS011;57767;42.068;24.752;2022-12-07T04:15:29;18.17;;;10.10;;
70342;SDS011;57767;42.068;24.752;2022-12-07T04:16:30;16.92;;;9.60;;
70342;SDS011;57767;42.068;24.752;2022-12-07T04:17:32;17.80;;;9.40;;
70342;SDS011;57767;42.068;24.752;2022-12-07T04:18:34;17.95;;;9.27;;
70342;SDS011;57767;42.068;24.752;2022-12-07T04:19:36;17.10;;;9.20;;
70342;SDS011;57767;42.068;24.752;2022-12-07T04:20:38;18.15;;;10.27;;
70342;SDS011;57767;42.068;24.752;2022-12-07T04:21:39;15.75;;;8.25;;
70342;SDS011;57767;42.068;24.752;2022-12-07T04:22:41;19.45;;;10.65;;
70342;SDS011;57767;42.068;24.752;2022-12-07T04:23:43;19.83;;;9.85;;
70342;SDS011;57767;42.068;24.752;2022-12-07T04:24:44;15.85;;;9.40;;
70342;SDS011;57767;42.068;24.752;2022-12-07T04:25:47;20.10;;;9.68;;
70342;SDS011;57767;42.068;24.752;2022-12-07T04:26:49;16.27;;;8.82;;
70342;SDS011;57767;42.068;24.752;2022-12-07T04:27:52;14.38;;;7.93;;
70342;SDS011;57767;42.068;24.752;2022-12-07T04:28:54;20.48;;;10.05;;
70342;SDS011;57767;42.068;24.752;2022-12-07T04:29:56;19.02;;;10.25;;
70342;SDS011;57767;42.068;24.752;2022-12-07T04:30:57;21.15;;;10.23;;
70342;SDS011;57767;42.068;24.752;2022-12-07T04:31:59;20.60;;;9.88;;
70342;SDS011;57767;42.068;24.752;2022-12-07T04:33:01;19.02;;;10.60;;
70342;SDS011;57767;42.068;24.752;2022-12-07T04:34:03;20.13;;;11.05;;
70342;SDS011;57767;42.068;24.752;2022-12-07T04:35:05;19.33;;;10.70;;
70342;SDS011;57767;42.068;24.752;2022-12-07T04:36:07;17.00;;;9.13;;
70342;SDS011;57767;42.068;24.752;2022-12-07T04:37:09;21.67;;;10.82;;
70342;SDS011;57767;42.068;24.752;2022-12-07T04:38:11;16.88;;;9.40;;
70342;SDS011;57767;42.068;24.752;2022-12-07T04:40:23;19.85;;;10.23;;
70342;SDS011;57767;42.068;24.752;2022-12-07T04:41:25;20.33;;;10.05;;
70342;SDS011;57767;42.068;24.752;2022-12-07T04:42:30;18.13;;;10.32;;
70342;SDS011;57767;42.068;24.752;2022-12-07T04:43:32;19.15;;;10.23;;
70342;SDS011;57767;42.068;24.752;2022-12-07T04:44:35;19.60;;;11.00;;
70342;SDS011;57767;42.068;24.752;2022-12-07T04:45:36;18.15;;;10.48;;
70342;SDS011;57767;42.068;24.752;2022-12-07T04:46:38;18.00;;;10.25;;
70342;SDS011;57767;42.068;24.752;2022-12-07T04:47:40;21.27;;;11.02;;
70342;SDS011;57767;42.068;24.752;2022-12-07T04:48:42;19.05;;;10.50;;
70342;SDS011;57767;42.068;24.752;2022-12-07T04:49:43;18.15;;;9.77;;
70342;SDS011;57767;42.068;24.752;2022-12-07T04:50:47;21.80;;;9.55;;
70342;SDS011;57767;42.068;24.752;2022-12-07T04:51:51;19.33;;;10.85;;
70342;SDS011;57767;42.068;24.752;2022-12-07T04:52:52;19.02;;;11.18;;
70342;SDS011;57767;42.068;24.752;2022-12-07T04:53:54;21.50;;;10.68;;
70342;SDS011;57767;42.068;24.752;2022-12-07T04:54:57;24.00;;;10.23;;
70342;SDS011;57767;42.068;24.752;2022-12-07T04:55:58;18.73;;;10.32;;
70342;SDS011;57767;42.068;24.752;2022-12-07T04:57:02;20.23;;;10.85;;
70342;SDS011;57767;42.068;24.752;2022-12-07T04:58:04;16.83;;;10.48;;
70342;SDS011;57767;42.068;24.752;2022-12-07T04:59:05;20.15;;;11.48;;
70342;SDS011;57767;42.068;24.752;2022-12-07T05:00:07;19.48;;;11.02;;
70342;SDS011;57767;42.068;24.752;2022-12-07T05:01:10;22.80;;;11.32;;
70342;SDS011;57767;42.068;24.752;2022-12-07T05:02:12;24.77;;;12.27;;
70342;SDS011;57767;42.068;24.752;2022-12-07T05:03:13;25.73;;;13.13;;
70342;SDS011;57767;42.068;24.752;2022-12-07T05:04:15;24.50;;;12.93;;
70342;SDS011;57767;42.068;24.752;2022-12-07T05:05:17;29.00;;;14.80;;
70342;SDS011;57767;42.068;24.752;2022-12-07T05:06:19;29.33;;;15.77;;
70342;SDS011;57767;42.068;24.752;2022-12-07T05:07:21;30.52;;;16.42;;
70342;SDS011;57767;42.068;24.752;2022-12-07T05:08:22;31.45;;;16.20;;
70342;SDS011;57767;42.068;24.752;2022-12-07T05:09:24;26.75;;;14.80;;
70342;SDS011;57767;42.068;24.752;2022-12-07T05:10:26;34.22;;;14.93;;
70342;SDS011;57767;42.068;24.752;2022-12-07T05:11:27;25.15;;;14.07;;
70342;SDS011;57767;42.068;24.752;2022-12-07T05:12:41;26.70;;;15.20;;
70342;SDS011;57767;42.068;24.752;2022-12-07T05:13:43;30.30;;;13.27;;
70342;SDS011;57767;42.068;24.752;2022-12-07T05:14:45;29.45;;;13.52;;
70342;SDS011;57767;42.068;24.752;2022-12-07T05:15:47;29.95;;;14.15;;
70342;SDS011;57767;42.068;24.752;2022-12-07T05:16:50;24.88;;;12.27;;
70342;SDS011;57767;42.068;24.752;2022-12-07T05:17:52;23.73;;;13.52;;
70342;SDS011;57767;42.068;24.752;2022-12-07T05:18:54;25.77;;;14.10;;
70342;SDS011;57767;42.068;24.752;2022-12-07T05:19:56;26.65;;;13.48;;
70342;SDS011;57767;42.068;24.752;2022-12-07T05:20:57;21.42;;;12.13;;
70342;SDS011;57767;42.068;24.752;2022-12-07T05:21:59;19.95;;;11.48;;
70342;SDS011;57767;42.068;24.752;2022-12-07T05:23:01;22.40;;;11.77;;
70342;SDS011;57767;42.068;24.752;2022-12-07T05:24:03;25.15;;;13.93;;
70342;SDS011;57767;42.068;24.752;2022-12-07T05:25:05;23.50;;;11.75;;
70342;SDS011;57767;42.068;24.752;2022-12-07T05:26:07;21.55;;;12.52;;
70342;SDS011;57767;42.068;24.752;2022-12-07T05:27:09;25.13;;;13.65;;
70342;SDS011;57767;42.068;24.752;2022-12-07T05:28:11;21.20;;;11.15;;
70342;SDS011;57767;42.068;24.752;2022-12-07T05:29:13;29.63;;;14.18;;
70342;SDS011;57767;42.068;24.752;2022-12-07T05:30:17;22.67;;;14.13;;
70342;SDS011;57767;42.068;24.752;2022-12-07T05:31:18;24.48;;;13.45;;
70342;SDS011;57767;42.068;24.752;2022-12-07T05:32:20;28.08;;;13.48;;
70342;SDS011;57767;42.068;24.752;2022-12-07T05:33:22;22.20;;;11.70;;
70342;SDS011;57767;42.068;24.752;2022-12-07T05:34:24;20.95;;;11.60;;
70342;SDS011;57767;42.068;24.752;2022-12-07T05:35:26;20.77;;;12.23;;
70342;SDS011;57767;42.068;24.752;2022-12-07T05:36:27;32.22;;;15.98;;
70342;SDS011;57767;42.068;24.752;2022-12-07T05:37:30;29.60;;;16.33;;
70342;SDS011;57767;42.068;24.752;2022-12-07T05:38:32;27.20;;;16.33;;
70342;SDS011;57767;42.068;24.752;2022-12-07T05:39:34;23.30;;;12.95;;
70342;SDS011;57767;42.068;24.752;2022-12-07T05:40:36;24.77;;;14.02;;
70342;SDS011;57767;42.068;24.752;2022-12-07T05:41:38;26.83;;;13.38;;
70342;SDS011;57767;42.068;24.752;2022-12-07T05:42:58;22.77;;;13.00;;
70342;SDS011;57767;42.068;24.752;2022-12-07T05:44:05;22.52;;;11.07;;
70342;SDS011;57767;42.068;24.752;2022-12-07T05:45:07;19.60;;;10.40;;
70342;SDS011;57767;42.068;24.752;2022-12-07T05:46:10;20.45;;;11.20;;
70342;SDS011;57767;42.068;24.752;2022-12-07T05:47:12;19.33;;;10.85;;
70342;SDS011;57767;42.068;24.752;2022-12-07T05:48:15;18.08;;;9.93;;
70342;SDS011;57767;42.068;24.752;2022-12-07T05:49:17;19.10;;;9.30;;
70342;SDS011;57767;42.068;24.752;2022-12-07T05:50:19;18.85;;;10.45;;
70342;SDS011;57767;42.068;24.752;2022-12-07T05:51:21;18.30;;;9.63;;
70342;SDS011;57767;42.068;24.752;2022-12-07T05:52:23;21.83;;;10.95;;
70342;SDS011;57767;42.068;24.752;2022-12-07T05:53:25;18.73;;;9.57;;
70342;SDS011;57767;42.068;24.752;2022-12-07T05:54:27;23.23;;;10.73;;
70342;SDS011;57767;42.068;24.752;2022-12-07T05:55:28;23.20;;;12.38;;
70342;SDS011;57767;42.068;24.752;2022-12-07T05:56:30;19.55;;;11.18;;
70342;SDS011;57767;42.068;24.752;2022-12-07T05:57:32;17.80;;;10.00;;
70342;SDS011;57767;42.068;24.752;2022-12-07T05:58:33;21.65;;;12.80;;
70342;SDS011;57767;42.068;24.752;2022-12-07T05:59:54;26.85;;;13.20;;
70342;SDS011;57767;42.068;24.752;2022-12-07T06:00:56;29.13;;;15.30;;
70342;SDS011;57767;42.068;24.752;2022-12-07T06:02:02;30.27;;;17.25;;
70342;SDS011;57767;42.068;24.752;2022-12-07T06:03:06;33.28;;;18.05;;
70342;SDS011;57767;42.068;24.752;2022-12-07T06:04:08;30.60;;;18.35;;
70342;SDS011;57767;42.068;24.752;2022-12-07T06:05:10;32.65;;;17.35;;
70342;SDS011;57767;42.068;24.752;2022-12-07T06:06:11;29.80;;;16.13;;
70342;SDS011;57767;42.068;24.752;2022-12-07T06:07:14;28.88;;;15.30;;
70342;SDS011;57767;42.068;24.752;2022-12-07T06:08:17;34.55;;;14.95;;
70342;SDS011;57767;42.068;24.752;2022-12-07T06:09:19;30.90;;;16.42;;
70342;SDS011;57767;42.068;24.752;2022-12-07T06:10:22;29.55;;;16.08;;
70342;SDS011;57767;42.068;24.752;2022-12-07T06:11:24;27.95;;;14.90;;
70342;SDS011;57767;42.068;24.752;2022-12-07T06:12:44;31.23;;;17.52;;
70342;SDS011;57767;42.068;24.752;2022-12-07T06:13:47;28.27;;;16.42;;
70342;SDS011;57767;42.068;24.752;2022-12-07T06:14:49;31.95;;;16.38;;
70342;SDS011;57767;42.068;24.752;2022-12-07T06:15:51;31.90;;;14.88;;
70342;SDS011;57767;42.068;24.752;2022-12-07T06:16:52;41.22;;;19.40;;
70342;SDS011;57767;42.068;24.752;2022-12-07T06:17:54;39.67;;;18.98;;
70342;SDS011;57767;42.068;24.752;2022-12-07T06:18:56;26.85;;;14.10;;
70342;SDS011;57767;42.068;24.752;2022-12-07T06:19:58;37.13;;;19.35;;
70342;SDS011;57767;42.068;24.752;2022-12-07T06:21:00;37.90;;;19.42;;
70342;SDS011;57767;42.068;24.752;2022-12-07T06:22:02;37.38;;;19.20;;
70342;SDS011;57767;42.068;24.752;2022-12-07T06:23:05;34.38;;;17.90;;
70342;SDS011;57767;42.068;24.752;2022-12-07T06:24:08;38.03;;;17.73;;
70342;SDS011;57767;42.068;24.752;2022-12-07T06:25:12;41.97;;;18.52;;
70342;SDS011;57767;42.068;24.752;2022-12-07T06:26:14;31.92;;;16.98;;
70342;SDS011;57767;42.068;24.752;2022-12-07T06:27:16;36.60;;;18.65;;
70342;SDS011;57767;42.068;24.752;2022-12-07T06:28:18;31.77;;;16.90;;
70342;SDS011;57767;42.068;24.752;2022-12-07T06:29:19;34.42;;;18.00;;
70342;SDS011;57767;42.068;24.752;2022-12-07T06:30:21;44.97;;;19.52;;
70342;SDS011;57767;42.068;24.752;2022-12-07T06:31:23;37.63;;;20.45;;
70342;SDS011;57767;42.068;24.752;2022-12-07T06:32:24;40.33;;;22.20;;
70342;SDS011;57767;42.068;24.752;2022-12-07T06:33:26;48.80;;;24.98;;
70342;SDS011;57767;42.068;24.752;2022-12-07T06:34:29;51.33;;;28.42;;
70342;SDS011;57767;42.068;24.752;2022-12-07T06:35:32;51.67;;;28.02;;
70342;SDS011;57767;42.068;24.752;2022-12-07T06:36:34;48.78;;;27.33;;
70342;SDS011;57767;42.068;24.752;2022-12-07T06:37:36;49.15;;;25.58;;
70342;SDS011;57767;42.068;24.752;2022-12-07T06:38:37;46.28;;;27.33;;
70342;SDS011;57767;42.068;24.752;2022-12-07T06:39:39;41.85;;;23.88;;
70342;SDS011;57767;42.068;24.752;2022-12-07T06:40:41;37.95;;;22.42;;
70342;SDS011;57767;42.068;24.752;2022-12-07T06:41:43;45.65;;;22.77;;
70342;SDS011;57767;42.068;24.752;2022-12-07T06:42:46;48.22;;;25.38;;
70342;SDS011;57767;42.068;24.752;2022-12-07T06:43:48;55.40;;;25.35;;
70342;SDS011;57767;42.068;24.752;2022-12-07T06:44:56;61.20;;;31.67;;
70342;SDS011;57767;42.068;24.752;2022-12-07T06:45:57;68.32;;;33.80;;
70342;SDS011;57767;42.068;24.752;2022-12-07T06:46:59;75.50;;;38.10;;
70342;SDS011;57767;42.068;24.752;2022-12-07T06:49:23;79.78;;;37.97;;
70342;SDS011;57767;42.068;24.752;2022-12-07T06:50:25;87.43;;;39.55;;
70342;SDS011;57767;42.068;24.752;2022-12-07T06:51:27;72.25;;;35.38;;